NEODyS-2

Near Earth Objects - Dynamic Site
NEODyS ∴ Observatories ∴ Site 691 ∴ Obs & residuals
Contact »
691  ▹ 
OBSERVATIONS AND RESIDUALS

691-Steward Observatory, Kitt Peak-Spacewatch

Detections | Residuals | Detections & Residuals

[1-200] [201-400] [401-600] [601-800] [801-1000] [1001-1200] [1201-1400] [1401-1600] [1601-1800] [1801-2000] [2001-2200] [2201-2400] [2401-2600] [2601-2800] [2801-3000] [3001-3200] [3201-3400] [3401-3600] [3601-3800] [3801-4000] [4001-4200] [4201-4400] [4401-4600] [4601-4800] [4801-5000] [5001-5200] [5201-5400] [5401-5600] [5601-5800] [5801-6000] [6001-6200] [6201-6400] [6401-6600] [6601-6800] [6801-7000] [7001-7200] [7201-7400] [7401-7600] [7601-7800] [7801-8000] [8001-8200] [8201-8400] [8401-8600] [8601-8800] [8801-9000] [9001-9200] [9201-9400] [9401-9600] [9601-9800] [9801-10000] [10001-10200] [10201-10400] [10401-10600] [10601-10800] [10801-11000] [11001-11200] [11201-11400] [11401-11600] [11601-11800] [11801-12000] [12001-12200] [12201-12400] [12401-12600] [12601-12800] [12801-13000] [13001-13200] [13201-13400] [13401-13600] [13601-13800] [13801-14000] [14001-14200] [14201-14400] [14401-14600] [14601-14800] [14801-15000] [15001-15200] [15201-15400] [15401-15600] [15601-15800] [15801-16000] [16001-16200] [16201-16400] [16401-16600] [16601-16800] [16801-17000] [17001-17200] [17201-17400] [17401-17600] [17601-17800] [17801-18000] [18001-18200] [18201-18400] [18401-18600] [18601-18800] [18801-19000] [19001-19200] [19201-19400] [19401-19600] [19601-19800] [19801-20000] [20001-20200] [20201-20400] [20401-20600] [20601-20800] [20801-21000] [21001-21200] [21201-21400] [21401-21600] [21601-21800] [21801-22000] [22001-22200] [22201-22400] [22401-22600] [22601-22800] [22801-23000] [23001-23200] [23201-23400] [23401-23600] [23601-23800] [23801-24000] [24001-24200] [24201-24400] [24401-24600] [24601-24800] [24801-25000] [25001-25200] [25201-25400] [25401-25600] [25601-25800] [25801-26000] [26001-26200] [26201-26400] [26401-26600] [26601-26800] [26801-27000] [27001-27200] [27201-27400] [27401-27600] [27601-27800] [27801-28000] [28001-28200] [28201-28400] [28401-28600] [28601-28800] [28801-29000] [29001-29200] [29201-29400] [29401-29600] [29601-29800] [29801-30000] [30001-30200] [30201-30400] [30401-30600] [30601-30800] [30801-31000] [31001-31200] [31201-31400] [31401-31600] [31601-31800] [31801-32000] [32001-32200] [32201-32400] [32401-32600] [32601-32800] [32801-33000] [33001-33200] [33201-33400] [33401-33600] [33601-33800] [33801-34000] [34001-34200] [34201-34400] [34401-34600] [34601-34800] [34801-35000] [35001-35200] [35201-35400] [35401-35600] [35601-35800] [35801-36000] [36001-36200] [36201-36400] [36401-36600] [36601-36800] [36801-37000] [37001-37200] [37201-37400] [37401-37600] [37601-37800] [37801-38000] [38001-38200] [38201-38400] [38401-38600] [38601-38800] [38801-39000] [39001-39200] [39201-39400] [39401-39600] [39601-39800] [39801-40000] [40001-40200] [40201-40400] [40401-40600] [40601-40800] [40801-41000] [41001-41200] [41201-41400] [41401-41600] [41601-41800] [41801-42000] [42001-42200] [42201-42400] [42401-42600] [42601-42800] [42801-43000] [43001-43200] [43201-43400] [43401-43600] [43601-43800] [43801-44000] [44001-44200] [44201-44400] [44401-44600] [44601-44800] [44801-45000] [45001-45200] [45201-45400] [45401-45600] [45601-45800] [45801-46000] [46001-46200] [46201-46400] [46401-46600] [46601-46800] [46801-47000] [47001-47200] [47201-47400] [47401-47600] [47601-47800] [47801-48000] [48001-48200] [48201-48400] [48401-48600] [48601-48800] [48801-49000] [49001-49200] [49201-49400] [49401-49600] [49601-49800] [49801-50000] [50001-50200] [50201-50388]

Designation T Tech N Date Right Ascension Declination Apparent Magnitude Star Catalog Site code χ Used A Used M
yr-mo-day precision hr:min:sec precision rms F bias residual deg min sec precision rms F bias residual mag/col rms residual
2001KZ66 O C 2014-04-29.22662 1.000E-05 14:22:20.930 1.500E-01 0.500 F 0.181 -0.121 -14° 52' 16.40" 1.000E-01 0.500 F 0.101 -0.061 o 691 0.27 Yes No
2001KZ66 O C 2014-04-29.24436 1.000E-05 14:22:19.120 1.500E-01 0.500 F 0.181 -0.152 -14° 51' 54.20" 1.000E-01 0.500 F 0.101 -0.058 o 691 0.32 Yes No
2001KZ66 O C 2014-04-29.26213 1.000E-05 14:22:17.310 1.500E-01 0.500 F 0.181 -0.093 -14° 51' 32.00" 1.000E-01 0.500 F 0.101 -0.125 o 691 0.31 Yes No
2014HX176 O C 2014-05-02.26095 1.000E-05 15:40:05.260 1.500E-01 0.500 F 0.064 -0.156 -02° 20' 14.70" 1.000E-01 0.500 F 0.131 -0.031 20.6 V 0.70 0.25 o 691 0.32 Yes Yes
1998UT18 O C 2014-05-02.27344 1.000E-05 15:52:10.430 1.500E-01 0.500 F 0.269 -0.293 -05° 09' 46.40" 1.000E-01 0.500 F 0.016 -0.074 19.1 V 0.70 0.28 o 691 0.61 Yes Yes
1996XB27 O C 2014-05-02.27590 1.000E-05 16:01:46.310 1.500E-01 0.500 F 0.032 -1.248 -04° 34' 16.20" 1.000E-01 0.500 F 0.214 0.821 18.6 V 0.70 -0.01 o 691 3.00 Yes Yes
2014HX176 O C 2014-05-02.27861 1.000E-05 15:40:10.090 1.500E-01 0.500 F 0.064 0.021 -02° 20' 46.70" 1.000E-01 0.500 F 0.131 -0.168 20.6 V 0.70 0.25 o 691 0.34 Yes Yes
1998UT18 O C 2014-05-02.29110 1.000E-05 15:52:07.530 1.500E-01 0.500 F 0.269 -0.113 -05° 10' 04.90" 1.000E-01 0.500 F 0.016 0.178 19.0 V 0.70 0.18 o 691 0.42 Yes Yes
1996XB27 O C 2014-05-02.29357 1.000E-05 16:01:46.160 1.500E-01 0.500 F 0.032 -0.171 -04° 33' 53.50" 1.000E-01 0.500 F 0.214 0.473 20.0 V 0.70 1.39 o 691 1.01 Yes Yes
2014HX176 O C 2014-05-02.29628 1.000E-05 15:40:14.840 1.500E-01 0.500 F 0.064 -0.409 -02° 21' 18.40" 1.000E-01 0.500 F 0.131 -0.071 20.7 V 0.70 0.35 o 691 0.84 Yes Yes
1998UT18 O C 2014-05-02.30876 1.000E-05 15:52:04.520 1.500E-01 0.500 F 0.269 -1.482 -05° 10' 23.60" 1.000E-01 0.500 F 0.016 0.214 18.7 V 0.70 -0.11 o 691 3.00 Yes Yes
1996XB27 O C 2014-05-02.31123 1.000E-05 16:01:45.920 1.500E-01 0.500 F 0.032 -0.091 -04° 33' 30.80" 1.000E-01 0.500 F 0.214 0.085 18.8 V 0.70 0.19 o 691 0.25 Yes Yes
2000SS164 O C 2014-05-02.32288 1.000E-05 16:12:23.330 1.500E-01 0.500 F 0.310 -0.429 -09° 18' 15.90" 1.000E-01 0.500 F 0.185 0.011 20.6 V 0.70 -0.10 o 691 0.86 Yes Yes
2000SS164 O C 2014-05-02.34062 1.000E-05 16:12:22.290 1.500E-01 0.500 F 0.310 -0.231 -09° 18' 11.30" 1.000E-01 0.500 F 0.185 -0.019 21.1 V 0.70 0.40 o 691 0.46 Yes Yes
2000SS164 O C 2014-05-02.35834 1.000E-05 16:12:21.240 1.500E-01 0.500 F 0.310 -0.184 -09° 18' 06.50" 1.000E-01 0.500 F 0.185 0.149 21.0 V 0.70 0.30 o 691 0.47 Yes Yes
2000EX106 O C 2014-05-02.43939 1.000E-05 22:04:04.440 1.500E-01 0.500 F -0.014 -0.316 +05° 45' 45.60" 1.000E-01 0.500 F 0.393 -0.171 19.7 V 0.70 0.52 o 691 0.72 Yes Yes
2000EX106 O C 2014-05-02.44964 1.000E-05 22:04:08.000 1.500E-01 0.500 F -0.014 -0.495 +05° 45' 55.40" 1.000E-01 0.500 F 0.393 -0.089 19.7 V 0.70 0.52 o 691 1.01 Yes Yes
2000EX106 O C 2014-05-02.45989 1.000E-05 22:04:11.600 1.500E-01 0.500 F -0.014 -0.024 +05° 46' 05.00" 1.000E-01 0.500 F 0.393 -0.202 19.8 V 0.70 0.62 o 691 0.41 Yes Yes
2013YZ37 O C 2014-05-03.13775 1.000E-05 12:36:44.520 1.500E-01 0.500 F 0.169 -0.133 +05° 02' 18.80" 1.000E-01 0.500 F 0.074 0.333 19.9 V 0.70 -0.23 o 691 0.72 Yes Yes
Melissabrucker O C 2014-05-03.14557 1.000E-05 12:34:04.960 1.500E-01 0.500 F 0.221 -0.276 -01° 02' 36.70" 1.000E-01 0.500 F 0.224 -0.115 19.2 V 0.70 0.33 o 691 0.60 Yes Yes
2013YZ37 O C 2014-05-03.15921 1.000E-05 12:36:45.770 1.500E-01 0.500 F 0.169 -0.477 +05° 02' 03.60" 1.000E-01 0.500 F 0.074 -0.023 20.0 V 0.70 -0.13 o 691 0.96 Yes Yes
Melissabrucker O C 2014-05-03.16703 1.000E-05 12:34:04.110 1.500E-01 0.500 F 0.221 -0.369 -01° 02' 31.20" 1.000E-01 0.500 F 0.224 -0.070 19.2 V 0.70 0.33 o 691 0.75 Yes Yes
2013YZ37 O C 2014-05-03.18066 1.000E-05 12:36:47.060 1.500E-01 0.500 F 0.169 -0.108 +05° 01' 48.90" 1.000E-01 0.500 F 0.074 0.140 20.2 V 0.70 0.07 o 691 0.36 Yes Yes
Melissabrucker O C 2014-05-03.18848 1.000E-05 12:34:03.270 1.500E-01 0.500 F 0.221 -0.305 -01° 02' 25.80" 1.000E-01 0.500 F 0.224 -0.119 19.1 V 0.70 0.23 o 691 0.65 Yes Yes
1999LF6 O C 2014-05-03.39134 1.000E-05 16:17:36.910 1.500E-01 0.500 F 0.163 -0.295 -01° 14' 22.90" 1.000E-01 0.500 F 0.243 0.119 19.0 V 0.70 0.34 o 691 0.64 Yes Yes
1999LF6 O C 2014-05-03.40901 1.000E-05 16:17:35.990 1.500E-01 0.500 F 0.163 -0.272 -01° 13' 41.00" 1.000E-01 0.500 F 0.243 0.044 19.0 V 0.70 0.34 o 691 0.55 Yes Yes
1999LF6 O C 2014-05-03.42669 1.000E-05 16:17:35.070 1.500E-01 0.500 F 0.163 -0.264 -01° 12' 59.00" 1.000E-01 0.500 F 0.243 0.034 19.0 V 0.70 0.34 o 691 0.53 Yes Yes
2003JC13 O C 2014-05-04.33295 1.000E-05 16:10:01.260 1.500E-01 0.500 F 0.141 0.622 -07° 49' 55.70" 1.000E-01 0.500 F 0.195 0.305 19.3 V 0.70 -0.06 o 691 1.39 Yes Yes
2003JC13 O C 2014-05-04.35061 1.000E-05 16:09:59.140 1.500E-01 0.500 F 0.141 -0.176 -07° 49' 19.60" 1.000E-01 0.500 F 0.195 0.104 19.5 V 0.70 0.14 o 691 0.41 Yes Yes
2003JC13 O C 2014-05-04.36829 1.000E-05 16:09:57.070 1.500E-01 0.500 F 0.141 -0.141 -07° 48' 43.20" 1.000E-01 0.500 F 0.195 0.110 19.6 V 0.70 0.24 o 691 0.36 Yes Yes
Melissabrucker O C 2014-05-05.14529 1.000E-05 12:32:51.770 1.500E-01 0.500 F 0.221 -0.157 -00° 54' 27.00" 1.000E-01 0.500 F 0.224 0.151 19.2 V 0.70 0.28 o 691 0.44 Yes Yes
Melissabrucker O C 2014-05-05.17022 1.000E-05 12:32:50.860 1.500E-01 0.500 F 0.221 -0.104 -00° 54' 21.20" 1.000E-01 0.500 F 0.224 0.099 19.1 V 0.70 0.18 o 691 0.29 Yes Yes
Melissabrucker O C 2014-05-05.19169 1.000E-05 12:32:50.070 1.500E-01 0.500 F 0.221 -0.144 -00° 54' 15.90" 1.000E-01 0.500 F 0.224 0.362 19.2 V 0.70 0.28 o 691 0.78 Yes Yes
Pocahontas O C 2014-05-05.21741 1.000E-05 15:39:06.090 1.500E-01 0.500 F 0.016 -0.440 -02° 34' 43.20" 1.000E-01 0.500 F 0.108 -0.255 19.7 V 0.70 -0.08 o 691 1.02 Yes Yes
1998KV2 O C 2014-05-05.22003 1.000E-05 15:22:53.610 1.500E-01 0.500 F -0.012 -0.165 -05° 35' 16.50" 1.000E-01 0.500 F 0.236 -0.223 18.1 V 0.70 0.47 o 691 0.56 Yes Yes
Pocahontas O C 2014-05-05.23507 1.000E-05 15:39:04.850 1.500E-01 0.500 F 0.016 -0.016 -02° 34' 26.50" 1.000E-01 0.500 F 0.108 -0.033 20.0 V 0.70 0.22 o 691 0.07 Yes Yes
1998KV2 O C 2014-05-05.23769 1.000E-05 15:22:51.340 1.500E-01 0.500 F -0.012 -0.185 -05° 35' 27.50" 1.000E-01 0.500 F 0.236 -0.033 18.1 V 0.70 0.47 o 691 0.38 Yes Yes
Pocahontas O C 2014-05-05.25273 1.000E-05 15:39:03.610 1.500E-01 0.500 F 0.016 0.467 -02° 34' 11.50" 1.000E-01 0.500 F 0.108 -1.513 19.7 V 0.70 -0.08 o 691 3.16 No Yes
1998KV2 O C 2014-05-05.25535 1.000E-05 15:22:49.070 1.500E-01 0.500 F -0.012 -0.119 -05° 35' 38.80" 1.000E-01 0.500 F 0.236 -0.155 18.0 V 0.70 0.37 o 691 0.39 Yes Yes
2013YZ37 O C 2014-05-06.15181 1.000E-05 12:40:03.780 1.500E-01 0.500 F 0.153 -0.139 +04° 26' 58.20" 1.000E-01 0.500 F 0.064 0.558 o 691 1.15 Yes No
2013YZ37 O C 2014-05-06.17028 1.000E-05 12:40:04.910 1.500E-01 0.500 F 0.153 -0.106 +04° 26' 44.90" 1.000E-01 0.500 F 0.064 0.350 o 691 0.73 Yes No
2013YZ37 O C 2014-05-06.18875 1.000E-05 12:40:06.020 1.500E-01 0.500 F 0.153 -0.318 +04° 26' 31.30" 1.000E-01 0.500 F 0.064 -0.141 o 691 0.70 Yes No
2003EN16 O C H 2014-05-06.20611 1.000E-05 15:37:51.790 1.500E-01 0.500 F 0.121 1.212 +04° 15' 08.40" 1.000E-01 0.500 F 0.168 -0.074 o 691 2.44 Yes No
2003EN16 O C H 2014-05-06.22379 1.000E-05 15:37:50.340 1.500E-01 0.500 F 0.121 0.405 +04° 15' 19.00" 1.000E-01 0.500 F 0.168 -1.581 o 691 3.26 No No
2003EN16 O C H 2014-05-06.24146 1.000E-05 15:37:48.930 1.500E-01 0.500 F 0.121 0.237 +04° 15' 32.10" 1.000E-01 0.500 F 0.168 -0.573 o 691 1.24 Yes No
1996XB27 O C H 2014-05-06.26992 1.000E-05 16:02:02.680 1.500E-01 0.559 F 0.041 -0.065 -03° 07' 50.60" 1.000E-01 0.559 F 0.240 0.048 19.0 V 0.70 0.49 o 691 0.14 Yes Yes
1996XB27 O C H 2014-05-06.28760 1.000E-05 16:02:02.240 1.500E-01 0.559 F 0.041 -0.201 -03° 07' 28.30" 1.000E-01 0.559 F 0.240 0.053 18.8 V 0.70 0.30 o 691 0.37 Yes Yes
1996XB27 O C H 2014-05-06.30530 1.000E-05 16:02:01.770 1.500E-01 0.559 F 0.041 -0.442 -03° 07' 05.80" 1.000E-01 0.559 F 0.240 0.199 18.8 V 0.70 0.30 o 691 0.87 Yes Yes
2000SS164 O C 2014-05-06.32398 1.000E-05 16:08:26.480 1.500E-01 0.500 F 0.166 -0.022 -09° 01' 12.90" 1.000E-01 0.500 F 0.171 0.210 o 691 0.42 Yes No
2002LY45 O C H 2014-05-06.33676 1.000E-05 15:46:55.840 1.500E-01 0.500 F 0.231 0.896 -09° 19' 23.20" 1.000E-01 0.500 F 0.136 -0.590 21.4 V 0.70 -0.20 o 691 2.15 Yes Yes
2000SS164 O C 2014-05-06.34173 1.000E-05 16:08:25.340 1.500E-01 0.500 F 0.166 -0.571 -09° 01' 08.70" 1.000E-01 0.500 F 0.171 0.008 o 691 1.14 Yes No
2002LY45 O C H 2014-05-06.35450 1.000E-05 15:46:54.260 1.500E-01 0.500 F 0.231 0.241 -09° 19' 15.50" 1.000E-01 0.500 F 0.136 0.125 o 691 0.54 Yes No
2000SS164 O C 2014-05-06.35945 1.000E-05 16:08:24.220 1.500E-01 0.500 F 0.166 -0.843 -09° 01' 04.90" 1.000E-01 0.500 F 0.171 -0.592 o 691 2.06 Yes No
1996XB27 O C H 2014-05-06.37556 1.000E-05 16:01:59.870 1.500E-01 0.559 F 0.041 -0.204 -03° 05' 36.90" 1.000E-01 0.559 F 0.240 0.006 18.9 V 0.70 0.40 o 691 0.37 Yes Yes
2011HF O C 2014-05-06.38816 1.000E-05 16:10:53.440 1.500E-01 0.500 F 0.105 0.328 -05° 04' 50.30" 1.000E-01 0.500 F 0.125 0.012 o 691 0.66 Yes No
1996XB27 O C H 2014-05-06.39326 1.000E-05 16:01:59.390 1.500E-01 0.559 F 0.041 -0.157 -03° 05' 14.30" 1.000E-01 0.559 F 0.240 0.071 19.0 V 0.70 0.50 o 691 0.31 Yes Yes
2011HF O C 2014-05-06.40584 1.000E-05 16:10:52.160 1.500E-01 0.500 F 0.105 -0.117 -05° 04' 16.50" 1.000E-01 0.500 F 0.125 -0.373 o 691 0.78 Yes No
2011HF O C 2014-05-06.42354 1.000E-05 16:10:50.930 1.500E-01 0.500 F 0.105 0.161 -05° 03' 42.10" 1.000E-01 0.500 F 0.125 -0.224 o 691 0.55 Yes No
2005UH3 O C 2014-05-07.31065 1.000E-05 15:36:31.120 1.500E-01 0.500 F 0.084 0.017 -13° 25' 39.70" 1.000E-01 0.500 F 0.186 -0.983 o 691 1.98 Yes No
2014HD3 O C 2014-05-07.32081 1.000E-05 15:37:29.970 1.500E-01 0.500 F -0.004 -0.267 -15° 20' 30.70" 1.000E-01 0.500 F 0.153 -0.396 18.2 V 0.70 0.43 o 691 0.96 Yes Yes
2005UH3 O C 2014-05-07.32840 1.000E-05 15:36:28.180 1.500E-01 0.500 F 0.084 -0.139 -13° 25' 54.40" 1.000E-01 0.500 F 0.186 -0.118 o 691 0.37 Yes No
2014HD3 O C 2014-05-07.33856 1.000E-05 15:37:31.320 1.500E-01 0.500 F -0.004 -0.377 -15° 21' 20.40" 1.000E-01 0.500 F 0.153 0.315 17.9 V 0.70 0.13 o 691 0.99 Yes Yes
2005UH3 O C 2014-05-07.34614 1.000E-05 15:36:25.270 1.500E-01 0.500 F 0.084 0.141 -13° 26' 09.80" 1.000E-01 0.500 F 0.186 0.020 o 691 0.29 Yes No
2014HD3 O C 2014-05-07.35630 1.000E-05 15:37:32.690 1.500E-01 0.500 F -0.004 -0.212 -15° 22' 11.10" 1.000E-01 0.500 F 0.153 -0.079 18.0 V 0.70 0.24 o 691 0.46 Yes Yes
1999LF6 O C 2014-05-08.26802 1.000E-05 16:13:16.980 1.500E-01 0.500 F 0.230 -0.021 +02° 03' 53.40" 1.000E-01 0.500 F 0.190 -0.248 18.8 V 0.70 0.29 o 691 0.50 Yes Yes
1999LF6 O C 2014-05-08.28570 1.000E-05 16:13:15.800 1.500E-01 0.500 F 0.230 -0.301 +02° 04' 37.90" 1.000E-01 0.500 F 0.190 0.113 19.0 V 0.70 0.49 o 691 0.64 Yes Yes
1999LF6 O C 2014-05-08.30338 1.000E-05 16:13:14.650 1.500E-01 0.500 F 0.230 -0.037 +02° 05' 21.80" 1.000E-01 0.500 F 0.190 -0.126 18.9 V 0.70 0.40 o 691 0.26 Yes Yes
2003JC13 O C 2014-05-08.31472 1.000E-05 16:02:12.600 1.500E-01 0.500 F 0.010 -0.215 -05° 27' 21.80" 1.000E-01 0.500 F 0.251 -0.064 19.3 V 0.70 0.16 o 691 0.45 Yes Yes
2003JC13 O C 2014-05-08.33239 1.000E-05 16:02:10.160 1.500E-01 0.500 F 0.010 -0.318 -05° 26' 42.30" 1.000E-01 0.500 F 0.251 -0.011 19.4 V 0.70 0.26 o 691 0.64 Yes Yes
2003JC13 O C 2014-05-08.35012 1.000E-05 16:02:07.730 1.500E-01 0.500 F 0.010 -0.089 -05° 26' 02.90" 1.000E-01 0.500 F 0.251 -0.234 19.4 V 0.70 0.26 o 691 0.50 Yes Yes
2014HD3 O C 2014-05-09.34651 1.000E-05 15:40:52.090 1.500E-01 0.500 F -0.055 -0.122 -17° 02' 51.70" 1.000E-01 0.500 F 0.164 -0.042 17.9 V 0.70 0.34 o 691 0.26 Yes Yes
2014HD3 O C 2014-05-09.37120 1.000E-05 15:40:54.250 1.500E-01 0.500 F -0.055 -0.174 -17° 04' 11.20" 1.000E-01 0.500 F 0.164 0.109 17.8 V 0.70 0.24 o 691 0.41 Yes Yes
2014HD3 O C 2014-05-09.38894 1.000E-05 15:40:55.820 1.500E-01 0.500 F -0.055 -0.127 -17° 05' 08.50" 1.000E-01 0.500 F 0.164 -0.069 17.8 V 0.70 0.24 o 691 0.29 Yes Yes
Melissabrucker O C 2014-05-10.16209 1.000E-05 12:30:12.150 1.500E-01 0.500 F 0.326 -0.518 -00° 36' 52.00" 1.000E-01 0.500 F 0.201 0.255 19.3 V 0.70 0.26 o 691 1.16 Yes Yes
Melissabrucker O C 2014-05-10.18404 1.000E-05 12:30:11.520 1.500E-01 0.500 F 0.326 -0.171 -00° 36' 48.10" 1.000E-01 0.500 F 0.201 0.088 19.3 V 0.70 0.26 o 691 0.38 Yes Yes
Melissabrucker O C 2014-05-10.20598 1.000E-05 12:30:10.860 1.500E-01 0.500 F 0.326 -0.283 -00° 36' 44.00" 1.000E-01 0.500 F 0.201 0.126 19.4 V 0.70 0.36 o 691 0.62 Yes Yes
2005LG8 O C H 2014-05-10.28203 1.000E-05 15:52:42.100 1.500E-01 0.500 F 0.200 -1.057 -03° 14' 56.00" 1.000E-01 0.500 F 0.220 -0.418 21.1 V 0.70 -0.01 o 691 2.27 Yes Yes
2003JC13 O C 2014-05-10.28961 1.000E-05 15:57:51.210 1.500E-01 0.559 F 0.172 0.094 -04° 12' 32.80" 1.000E-01 0.559 F 0.292 -0.173 19.1 V 0.70 0.05 o 691 0.35 Yes Yes
2005LG8 O C H 2014-05-10.29977 1.000E-05 15:52:40.600 1.500E-01 0.500 F 0.200 -1.024 -03° 14' 45.40" 1.000E-01 0.500 F 0.220 -0.143 20.9 V 0.70 -0.21 o 691 2.07 Yes Yes
2003JC13 O C 2014-05-10.30733 1.000E-05 15:57:48.570 1.500E-01 0.559 F 0.172 -0.393 -04° 11' 51.70" 1.000E-01 0.559 F 0.292 0.037 19.2 V 0.70 0.15 o 691 0.71 Yes Yes
2003JC13 O C 2014-05-10.32501 1.000E-05 15:57:45.930 1.500E-01 0.559 F 0.172 -0.879 -04° 11' 10.70" 1.000E-01 0.559 F 0.292 0.207 19.2 V 0.70 0.15 o 691 1.63 Yes Yes
2001YK4 O C H 2014-05-10.34647 1.000E-05 16:00:00.780 1.500E-01 0.500 F 0.165 0.525 -11° 52' 48.00" 1.000E-01 0.500 F 0.204 -0.459 o 691 1.40 Yes No
2001YK4 O C H 2014-05-10.36420 1.000E-05 15:59:59.160 1.500E-01 0.500 F 0.165 0.725 -11° 52' 39.60" 1.000E-01 0.500 F 0.204 -0.977 o 691 2.45 Yes No
2001YK4 O C H 2014-05-10.38195 1.000E-05 15:59:57.510 1.500E-01 0.500 F 0.165 0.513 -11° 52' 30.10" 1.000E-01 0.500 F 0.204 -0.425 o 691 1.34 Yes No
2011HF O C 2014-05-10.39043 1.000E-05 16:06:15.250 1.500E-01 0.500 F 0.014 -0.223 -02° 52' 56.40" 1.000E-01 0.500 F 0.221 0.284 19.8 V 0.70 -0.15 o 691 0.73 Yes Yes
2003JC13 O C H 2014-05-10.39808 1.000E-05 15:57:35.190 1.500E-01 0.559 F 0.172 -0.113 -04° 08' 21.90" 1.000E-01 0.559 F 0.292 -0.097 19.6 V 0.70 0.55 o 691 0.27 Yes Yes
2011HF O C 2014-05-10.40811 1.000E-05 16:06:13.780 1.500E-01 0.500 F 0.014 -0.217 -02° 52' 21.00" 1.000E-01 0.500 F 0.221 -0.035 19.9 V 0.70 -0.05 o 691 0.44 Yes Yes
2003JC13 O C H 2014-05-10.41576 1.000E-05 15:57:32.590 1.500E-01 0.559 F 0.172 -0.073 -04° 07' 41.20" 1.000E-01 0.559 F 0.292 -0.397 19.5 V 0.70 0.45 o 691 0.72 Yes Yes
2011HF O C 2014-05-10.42578 1.000E-05 16:06:12.320 1.500E-01 0.500 F 0.014 -0.147 -02° 51' 44.80" 1.000E-01 0.500 F 0.221 0.451 20.5 V 0.70 0.55 o 691 0.95 Yes Yes
1999GT3 O C H 2014-05-10.45138 1.000E-05 21:55:10.380 1.500E-01 0.500 F 0.073 0.132 +10° 49' 24.80" 1.000E-01 0.500 F 0.218 -0.374 o 691 0.80 Yes No
1999GT3 O C H 2014-05-10.47680 1.000E-05 21:55:17.320 1.500E-01 0.500 F 0.073 0.199 +10° 50' 10.20" 1.000E-01 0.500 F 0.218 -0.215 o 691 0.59 Yes No
2014HS184 O C 2014-05-26.29990 1.000E-05 16:17:01.280 1.500E-01 0.500 F 0.163 0.392 -00° 10' 29.90" 1.000E-01 0.500 F 0.215 0.297 20.3 V 0.70 1.22 o 691 0.99 Yes Yes
2014HS184 O C 2014-05-26.31758 1.000E-05 16:17:07.570 1.500E-01 0.500 F 0.163 -0.231 -00° 10' 17.90" 1.000E-01 0.500 F 0.215 -0.078 20.1 V 0.70 1.02 o 691 0.49 Yes Yes
2014HS184 O C 2014-05-26.33527 1.000E-05 16:17:13.910 1.500E-01 0.500 F 0.163 -0.348 -00° 10' 05.40" 1.000E-01 0.500 F 0.215 0.031 19.0 V 0.70 -0.08 o 691 0.70 Yes Yes
2014KQ75 O C 2014-05-27.31616 1.000E-05 16:26:17.490 1.500E-01 0.500 F 0.074 -0.235 -04° 52' 52.50" 1.000E-01 0.500 F 0.247 -0.242 o 691 0.71 Yes No
2014KQ75 O C 2014-05-27.33385 1.000E-05 16:26:16.560 1.500E-01 0.500 F 0.074 0.129 -04° 54' 34.00" 1.000E-01 0.500 F 0.247 0.637 o 691 1.38 Yes No
2014KQ75 O C 2014-05-27.37337 1.000E-05 16:26:14.480 1.500E-01 0.500 F 0.074 0.305 -04° 58' 25.40" 1.000E-01 0.500 F 0.247 0.138 o 691 0.69 Yes No
2006SZ217 O C 2014-06-02.23347 1.000E-05 15:23:05.890 1.500E-01 0.500 F 0.120 -0.333 -18° 10' 17.90" 1.000E-01 0.500 F -0.077 0.255 20.9 V 0.70 1.10 o 691 0.84 Yes Yes
2006SZ217 O C 2014-06-02.25130 1.000E-05 15:23:04.430 1.500E-01 0.500 F 0.120 -0.335 -18° 09' 56.50" 1.000E-01 0.500 F -0.077 -0.115 20.2 V 0.70 0.40 o 691 0.71 Yes Yes
2006SZ217 O C 2014-06-02.26913 1.000E-05 15:23:02.950 1.500E-01 0.500 F 0.120 -0.627 -18° 09' 34.20" 1.000E-01 0.500 F -0.077 0.390 19.8 V 0.70 0.00 o 691 1.48 Yes Yes
2009UX17 O C 2014-06-02.33656 1.000E-05 16:24:23.180 1.500E-01 0.500 F 0.062 -2.093 +10° 51' 11.90" 1.000E-01 0.500 F 0.250 1.199 19.9 V 0.70 -0.25 o 691 4.79 No Yes
2014JW54 O C 2014-06-02.34419 1.000E-05 16:25:28.310 1.500E-01 0.500 F 0.153 -0.991 +08° 57' 38.80" 1.000E-01 0.500 F 0.184 -0.122 21.4 V 0.70 0.12 o 691 2.04 Yes Yes
2009UX17 O C 2014-06-02.35438 1.000E-05 16:24:21.640 1.500E-01 0.500 F 0.062 -0.071 +10° 51' 34.70" 1.000E-01 0.500 F 0.250 -0.076 20.1 V 0.70 -0.05 o 691 0.21 Yes Yes
2014JW54 O C 2014-06-02.36203 1.000E-05 16:25:25.910 1.500E-01 0.500 F 0.153 -0.630 +08° 57' 28.80" 1.000E-01 0.500 F 0.184 0.794 20.8 V 0.70 -0.48 o 691 2.04 Yes Yes
2009UX17 O C 2014-06-02.37223 1.000E-05 16:24:19.990 1.500E-01 0.500 F 0.062 0.227 +10° 51' 58.40" 1.000E-01 0.500 F 0.250 -0.394 20.7 V 0.70 0.55 o 691 0.92 Yes Yes
2014JW54 O C 2014-06-02.37987 1.000E-05 16:25:23.500 1.500E-01 0.500 F 0.153 -0.465 +08° 57' 17.00" 1.000E-01 0.500 F 0.184 -0.075 21.3 V 0.70 0.02 o 691 0.96 Yes Yes
2013NX O C H 2014-06-03.31155 1.000E-05 16:29:14.930 1.500E-01 0.500 F 0.064 -0.435 +03° 22' 56.20" 1.000E-01 0.500 F 0.194 -0.302 o 691 1.06 Yes No
2013NX O C H 2014-06-03.32933 1.000E-05 16:29:11.350 1.500E-01 0.500 F 0.064 0.279 +03° 22' 42.80" 1.000E-01 0.500 F 0.194 -0.712 o 691 1.53 Yes No
2013NX O C H 2014-06-03.34710 1.000E-05 16:29:07.680 1.500E-01 0.500 F 0.064 -0.472 +03° 22' 30.20" 1.000E-01 0.500 F 0.194 -0.286 20.3 V 0.70 0.15 o 691 1.11 Yes Yes
Baboquivari O C H 2014-06-04.27852 1.000E-05 16:17:25.940 1.500E-01 0.500 F 0.359 0.252 -09° 48' 16.00" 1.000E-01 0.500 F 0.185 -0.688 21.2 V 0.70 0.34 o 691 1.47 Yes Yes
2009UX17 O C H 2014-06-05.32650 1.000E-05 16:20:29.160 1.500E-01 0.500 F 0.095 -0.017 +11° 52' 34.60" 1.000E-01 0.500 F 0.222 -0.139 20.8 V 0.70 0.53 o 691 0.28 Yes Yes
2009UX17 O C H 2014-06-05.34436 1.000E-05 16:20:27.580 1.500E-01 0.500 F 0.095 -0.427 +11° 52' 54.50" 1.000E-01 0.500 F 0.222 0.258 20.7 V 0.70 0.43 o 691 1.01 Yes Yes
2009UX17 O C H 2014-06-05.36222 1.000E-05 16:20:26.020 1.500E-01 0.500 F 0.095 -0.690 +11° 53' 13.60" 1.000E-01 0.500 F 0.222 -0.045 o 691 1.39 Yes No
2006SZ217 O C H 2014-06-06.23520 1.000E-05 15:18:04.370 1.500E-01 0.500 F 0.028 1.151 -16° 50' 03.20" 1.000E-01 0.500 F 0.009 -0.375 19.6 V 0.70 -0.32 o 691 2.43 Yes Yes
2014KP4 O C 2014-06-06.24542 1.000E-05 15:14:40.600 1.500E-01 0.500 F 0.054 -0.105 -18° 29' 38.90" 1.000E-01 0.500 F -0.111 -0.184 19.1 V 0.70 0.17 o 691 0.43 Yes Yes
2006SZ217 O C H 2014-06-06.25303 1.000E-05 15:18:02.950 1.500E-01 0.500 F 0.028 -0.181 -16° 49' 41.60" 1.000E-01 0.500 F 0.009 0.153 20.2 V 0.70 0.28 o 691 0.48 Yes Yes
2014KP4 O C 2014-06-06.26326 1.000E-05 15:14:39.920 1.500E-01 0.500 F 0.054 -0.083 -18° 29' 19.30" 1.000E-01 0.500 F -0.111 -0.192 19.0 V 0.70 0.07 o 691 0.42 Yes Yes
2006SZ217 O C H 2014-06-06.27087 1.000E-05 15:18:01.640 1.500E-01 0.500 F 0.028 0.061 -16° 49' 20.40" 1.000E-01 0.500 F 0.009 0.249 20.3 V 0.70 0.38 o 691 0.51 Yes Yes
2014KP4 O C 2014-06-06.28109 1.000E-05 15:14:39.270 1.500E-01 0.500 F 0.054 0.298 -18° 28' 59.20" 1.000E-01 0.500 F -0.111 0.269 20.3 V 0.70 1.37 o 691 0.81 Yes Yes
2013NX O C 2014-06-16.30643 1.000E-05 15:50:57.940 1.500E-01 0.500 F 0.115 -0.399 -00° 20' 28.00" 1.000E-01 0.500 F 0.216 -0.066 20.1 V 0.70 -0.32 o 691 0.81 Yes Yes
2004LJ1 O C 2014-06-16.31952 1.000E-05 15:54:59.400 1.500E-01 0.500 F 0.190 -0.057 -09° 14' 34.60" 1.000E-01 0.500 F 0.117 -0.030 19.2 V 0.70 0.76 o 691 0.13 Yes Yes
2013NX O C 2014-06-16.32496 1.000E-05 15:50:54.880 1.500E-01 0.500 F 0.115 0.329 -00° 20' 52.00" 1.000E-01 0.500 F 0.216 -0.417 20.3 V 0.70 -0.12 o 691 1.07 Yes Yes
2004LJ1 O C 2014-06-16.33553 1.000E-05 15:54:58.060 1.500E-01 0.500 F 0.190 -0.062 -09° 14' 21.90" 1.000E-01 0.500 F 0.117 0.106 19.1 V 0.70 0.66 o 691 0.25 Yes Yes
2013NX O C 2014-06-16.34097 1.000E-05 15:50:52.160 1.500E-01 0.500 F 0.115 -0.403 -00° 21' 12.50" 1.000E-01 0.500 F 0.216 -0.478 20.7 V 0.70 0.28 o 691 1.26 Yes Yes
2004LJ1 O C 2014-06-16.35156 1.000E-05 15:54:56.730 1.500E-01 0.500 F 0.190 0.066 -09° 14' 09.40" 1.000E-01 0.500 F 0.117 0.021 18.7 V 0.70 0.26 o 691 0.14 Yes Yes
2011MF O C 2014-06-17.29199 1.000E-05 16:04:34.580 1.500E-01 0.500 F 0.117 -0.136 -01° 29' 51.70" 1.000E-01 0.500 F 0.131 0.039 19.8 V 0.70 -0.08 o 691 0.29 Yes Yes
2005TR15 O C 2014-06-17.29461 1.000E-05 16:02:19.820 1.500E-01 0.500 F 0.032 -0.175 -04° 03' 19.00" 1.000E-01 0.500 F 0.215 0.037 17.6 V 0.70 0.27 o 691 0.36 Yes Yes
2011MF O C 2014-06-17.31594 1.000E-05 16:04:35.480 1.500E-01 0.500 F 0.117 -0.012 -01° 30' 54.20" 1.000E-01 0.500 F 0.131 0.145 19.7 V 0.70 -0.18 o 691 0.29 Yes Yes
2005TR15 O C 2014-06-17.31856 1.000E-05 16:02:22.280 1.500E-01 0.500 F 0.032 -0.113 -04° 03' 04.80" 1.000E-01 0.500 F 0.215 0.096 17.7 V 0.70 0.37 o 691 0.30 Yes Yes
2011MF O C 2014-06-17.33988 1.000E-05 16:04:36.380 1.500E-01 0.500 F 0.117 -0.378 -01° 31' 56.60" 1.000E-01 0.500 F 0.131 0.382 19.9 V 0.70 0.02 o 691 1.08 Yes Yes
2005TR15 O C 2014-06-17.34250 1.000E-05 16:02:24.760 1.500E-01 0.500 F 0.032 -0.128 -04° 02' 50.70" 1.000E-01 0.500 F 0.215 0.032 17.7 V 0.70 0.37 o 691 0.26 Yes Yes
2014JP34 O C 2014-06-18.17858 1.000E-05 15:41:37.340 1.500E-01 0.500 F 0.109 -1.154 -12° 43' 30.10" 1.000E-01 0.500 F 0.129 -0.038 o 691 2.81 Yes No
2014JP34 O C 2014-06-18.20525 1.000E-05 15:41:36.260 1.500E-01 0.500 F 0.109 -0.021 -12° 43' 32.00" 1.000E-01 0.500 F 0.129 -0.014 o 691 0.06 Yes No
2014JP34 O C 2014-06-18.23191 1.000E-05 15:41:35.180 1.500E-01 0.500 F 0.109 1.135 -12° 43' 33.80" 1.000E-01 0.500 F 0.129 0.031 o 691 2.80 Yes No
2005TR15 O C 2014-06-19.30128 1.000E-05 16:06:18.510 1.500E-01 0.500 F 0.000 -0.120 -03° 44' 54.80" 1.000E-01 0.500 F 0.230 0.067 o 691 0.28 Yes No
Baboquivari O C 2014-06-19.30405 1.000E-05 16:03:51.120 1.500E-01 0.500 F 0.155 0.200 -09° 04' 12.30" 1.000E-01 0.500 F 0.195 -0.403 o 691 0.90 Yes No
2005TR15 O C 2014-06-19.32014 1.000E-05 16:06:20.560 1.500E-01 0.500 F 0.000 -0.219 -03° 44' 45.20" 1.000E-01 0.500 F 0.230 -0.172 o 691 0.56 Yes No
Baboquivari O C 2014-06-19.32291 1.000E-05 16:03:50.070 1.500E-01 0.500 F 0.155 -1.104 -09° 04' 09.80" 1.000E-01 0.500 F 0.195 -0.436 o 691 2.38 Yes No
2005TR15 O C 2014-06-19.33900 1.000E-05 16:06:22.640 1.500E-01 0.500 F 0.000 -0.125 -03° 44' 35.20" 1.000E-01 0.500 F 0.230 -0.026 o 691 0.26 Yes No
Baboquivari O C 2014-06-19.34178 1.000E-05 16:03:49.140 1.500E-01 0.500 F 0.155 -0.651 -09° 04' 07.70" 1.000E-01 0.500 F 0.195 -0.874 o 691 2.18 Yes No
Zao O C 2014-06-20.36069 1.000E-05 20:50:46.400 1.500E-01 0.500 F -0.058 -0.255 -15° 20' 58.30" 1.000E-01 0.500 F 0.216 -0.040 o 691 0.52 Yes No
Zao O C 2014-06-20.37850 1.000E-05 20:50:45.740 1.500E-01 0.500 F -0.058 -0.065 -15° 21' 04.90" 1.000E-01 0.500 F 0.216 0.015 o 691 0.13 Yes No
Zao O C 2014-06-20.39630 1.000E-05 20:50:45.070 1.500E-01 0.500 F -0.058 -0.001 -15° 21' 11.70" 1.000E-01 0.500 F 0.216 -0.144 o 691 0.29 Yes No
2004LJ1 O C 2014-06-21.17430 1.000E-05 15:48:38.510 1.500E-01 0.500 F 0.216 -0.223 -08° 13' 12.90" 1.000E-01 0.500 F 0.081 0.168 o 691 0.56 Yes No
2004LJ1 O C 2014-06-21.18509 1.000E-05 15:48:37.720 1.500E-01 0.500 F 0.216 0.490 -08° 13' 05.20" 1.000E-01 0.500 F 0.081 -0.025 o 691 0.98 Yes No
2004LJ1 O C 2014-06-21.19588 1.000E-05 15:48:36.840 1.500E-01 0.500 F 0.216 -0.130 -08° 12' 56.80" 1.000E-01 0.500 F 0.081 0.480 o 691 1.00 Yes No
1996XB27 O C 2014-06-21.20216 1.000E-05 15:56:33.610 1.500E-01 0.500 F 0.161 -0.228 +00° 40' 25.20" 1.000E-01 0.500 F 0.132 -0.124 o 691 0.52 Yes No
1996XB27 O C 2014-06-21.21548 1.000E-05 15:56:33.750 1.500E-01 0.500 F 0.161 -0.219 +00° 40' 15.10" 1.000E-01 0.500 F 0.132 -0.022 o 691 0.44 Yes No
1996XB27 O C 2014-06-21.22878 1.000E-05 15:56:33.900 1.500E-01 0.500 F 0.161 -0.039 +00° 40' 04.80" 1.000E-01 0.500 F 0.132 -0.126 o 691 0.26 Yes No
2009BJ81 O C 2014-06-21.35289 1.000E-05 20:59:22.800 1.500E-01 0.500 F -0.184 -0.058 -15° 19' 44.60" 1.000E-01 0.500 F 0.299 0.193 o 691 0.40 Yes No
2009BJ81 O C 2014-06-21.37068 1.000E-05 20:59:21.550 1.500E-01 0.500 F -0.184 -0.162 -15° 20' 01.50" 1.000E-01 0.500 F 0.299 0.126 o 691 0.41 Yes No
2009BJ81 O C 2014-06-21.39196 1.000E-05 20:59:20.000 1.500E-01 0.500 F -0.184 -0.957 -15° 20' 23.90" 1.000E-01 0.500 F 0.299 -2.196 o 691 4.78 No No
2015AX16 O C 2014-06-21.42147 1.000E-05 20:40:38.310 1.500E-01 0.500 F -0.052 -0.137 -03° 13' 55.20" 1.000E-01 0.500 F 0.263 0.032 o 691 0.28 Yes No
2001MK3 O C 2014-06-21.42891 1.000E-05 21:03:36.330 1.500E-01 0.500 F 0.041 -0.362 -03° 53' 14.20" 1.000E-01 0.500 F 0.232 -0.077 o 691 0.74 Yes No
2015AX16 O C 2014-06-21.44270 1.000E-05 20:40:38.090 1.500E-01 0.500 F -0.052 0.478 -03° 13' 48.60" 1.000E-01 0.500 F 0.263 0.267 o 691 1.10 Yes No
2001MK3 O C 2014-06-21.45013 1.000E-05 21:03:35.860 1.500E-01 0.500 F 0.041 -0.380 -03° 53' 27.00" 1.000E-01 0.500 F 0.232 0.053 o 691 0.77 Yes No
2015AX16 O C 2014-06-21.46043 1.000E-05 20:40:37.830 1.500E-01 0.500 F -0.052 -0.150 -03° 13' 43.60" 1.000E-01 0.500 F 0.263 -0.049 o 691 0.32 Yes No
2001MK3 O C 2014-06-21.46787 1.000E-05 21:03:35.480 1.500E-01 0.500 F 0.041 -0.196 -03° 53' 37.90" 1.000E-01 0.500 F 0.232 -0.035 o 691 0.40 Yes No
2005TR15 O C 2014-06-22.25360 1.000E-05 16:12:33.250 1.500E-01 0.500 F 0.053 -0.123 -03° 22' 09.40" 1.000E-01 0.500 F 0.234 -0.152 o 691 0.39 Yes No
2005TR15 O C 2014-06-22.26690 1.000E-05 16:12:34.810 1.500E-01 0.500 F 0.053 -0.028 -03° 22' 03.80" 1.000E-01 0.500 F 0.234 -0.018 o 691 0.07 Yes No
2005TR15 O C 2014-06-22.28021 1.000E-05 16:12:36.370 1.500E-01 0.500 F 0.053 -0.008 -03° 21' 58.40" 1.000E-01 0.500 F 0.234 -0.095 o 691 0.19 Yes No
2004LJ1 O C 2014-06-23.17094 1.000E-05 15:46:11.430 1.500E-01 0.500 F 0.183 0.031 -07° 49' 13.00" 1.000E-01 0.500 F 0.060 0.104 18.6 V 0.70 0.07 o 691 0.22 Yes Yes
2004LJ1 O C 2014-06-23.18439 1.000E-05 15:46:10.420 1.500E-01 0.500 F 0.183 -0.077 -07° 49' 04.10" 1.000E-01 0.500 F 0.060 -0.518 18.3 V 0.70 -0.23 o 691 1.05 Yes Yes
2004LJ1 O C 2014-06-23.19787 1.000E-05 15:46:09.290 1.500E-01 0.500 F 0.183 -1.932 -07° 48' 56.70" 1.000E-01 0.500 F 0.060 -2.665 19.6 V 0.70 1.07 o 691 6.58 No Yes
2014MD6 O C 2014-06-23.21182 1.000E-05 15:53:05.580 1.500E-01 0.500 F 0.270 -0.181 -05° 25' 03.60" 1.000E-01 0.500 F 0.016 -0.057 19.5 V 0.70 0.13 o 691 0.38 Yes Yes
2014MD6 O C 2014-06-23.22514 1.000E-05 15:53:05.110 1.500E-01 0.500 F 0.270 -0.231 -05° 24' 27.50" 1.000E-01 0.500 F 0.016 0.190 19.4 V 0.70 0.03 o 691 0.60 Yes Yes
2014MD6 O C 2014-06-23.23844 1.000E-05 15:53:04.690 1.500E-01 0.500 F 0.270 0.438 -05° 23' 51.50" 1.000E-01 0.500 F 0.016 0.346 19.2 V 0.70 -0.17 o 691 1.12 Yes Yes
2014LR26 O C 2014-06-25.26284 1.000E-05 16:10:10.560 1.500E-01 0.500 F 0.226 -0.658 -08° 41' 37.60" 1.000E-01 0.500 F 0.223 -0.342 o 691 1.49 Yes No
2014LR26 O C 2014-06-25.27622 1.000E-05 16:10:09.540 1.500E-01 0.500 F 0.226 -0.311 -08° 41' 40.70" 1.000E-01 0.500 F 0.223 -0.459 o 691 1.11 Yes No
2014LR26 O C 2014-06-25.28962 1.000E-05 16:10:08.520 1.500E-01 0.500 F 0.226 0.040 -08° 41' 43.50" 1.000E-01 0.500 F 0.223 -0.276 o 691 0.56 Yes No
2009BJ81 O C 2014-06-25.35426 1.000E-05 20:54:41.990 1.500E-01 0.500 F -0.133 -0.031 -16° 23' 16.90" 1.000E-01 0.500 F 0.184 -0.138 o 691 0.28 Yes No
2009BJ81 O C 2014-06-25.37205 1.000E-05 20:54:40.460 1.500E-01 0.500 F -0.133 -0.898 -16° 23' 33.70" 1.000E-01 0.500 F 0.184 0.453 o 691 2.02 Yes No
2009BJ81 O C 2014-06-25.38987 1.000E-05 20:54:39.040 1.500E-01 0.500 F -0.133 -0.073 -16° 23' 51.80" 1.000E-01 0.500 F 0.184 -0.277 o 691 0.57 Yes No
2001MK3 O C 2014-06-25.42668 1.000E-05 21:02:00.460 1.500E-01 0.500 F 0.068 -0.165 -04° 37' 12.90" 1.000E-01 0.500 F 0.241 -0.053 o 691 0.35 Yes No
2001MK3 O C 2014-06-25.44441 1.000E-05 21:01:59.900 1.500E-01 0.500 F 0.068 -0.290 -04° 37' 25.40" 1.000E-01 0.500 F 0.241 0.068 o 691 0.60 Yes No
2001MK3 O C 2014-06-25.46215 1.000E-05 21:01:59.360 1.500E-01 0.500 F 0.068 -0.109 -04° 37' 38.20" 1.000E-01 0.500 F 0.241 -0.101 o 691 0.30 Yes No
2012OT5 O C 2014-06-26.25414 1.000E-05 16:10:20.410 1.500E-01 0.500 F 0.187 -0.546 +00° 34' 51.70" 1.000E-01 0.500 F 0.145 0.002 o 691 1.11 Yes No
2012OT5 O C 2014-06-26.26745 1.000E-05 16:10:21.040 1.500E-01 0.500 F 0.187 0.149 +00° 34' 29.40" 1.000E-01 0.500 F 0.145 -0.072 o 691 0.33 Yes No
2012OT5 O C 2014-06-26.28075 1.000E-05 16:10:21.620 1.500E-01 0.500 F 0.187 0.022 +00° 34' 07.30" 1.000E-01 0.500 F 0.145 0.046 o 691 0.10 Yes No
2001MK3 O C 2014-06-26.30617 1.000E-05 21:01:34.830 1.500E-01 0.500 F 0.068 -0.211 -04° 47' 49.10" 1.000E-01 0.500 F 0.241 -0.122 o 691 0.49 Yes No
2001MK3 O C 2014-06-26.32392 1.000E-05 21:01:34.250 1.500E-01 0.500 F 0.068 -0.252 -04° 48' 02.10" 1.000E-01 0.500 F 0.241 -0.034 o 691 0.51 Yes No
2001MK3 O C 2014-06-26.34169 1.000E-05 21:01:33.670 1.500E-01 0.500 F 0.068 -0.226 -04° 48' 15.20" 1.000E-01 0.500 F 0.241 -0.028 o 691 0.46 Yes No
1996XB27 O C 2014-06-27.23359 1.000E-05 16:00:45.040 1.500E-01 0.500 F 0.166 -0.950 -00° 45' 39.40" 1.000E-01 0.500 F 0.143 0.731 o 691 2.40 Yes No
1996XB27 O C 2014-06-27.26045 1.000E-05 16:00:45.890 1.500E-01 0.500 F 0.166 -0.180 -00° 46' 05.30" 1.000E-01 0.500 F 0.143 -0.022 o 691 0.36 Yes No
1996XB27 O C 2014-06-27.28731 1.000E-05 16:00:46.720 1.500E-01 0.500 F 0.166 -0.177 -00° 46' 30.40" 1.000E-01 0.500 F 0.143 0.023 o 691 0.36 Yes No
2004LJ1 O C 2014-06-28.17924 1.000E-05 15:40:32.440 1.500E-01 0.500 F 0.163 2.190 -06° 52' 43.80" 1.000E-01 0.500 F 0.173 0.937 18.1 V 0.70 -0.49 o 691 4.76 No Yes
2004LJ1 O C 2014-06-28.22471 1.000E-05 15:40:29.290 1.500E-01 0.500 F 0.163 -0.335 -06° 52' 15.00" 1.000E-01 0.500 F 0.173 0.537 19.2 V 0.70 0.61 o 691 1.27 Yes Yes
2004LJ1 O C 2014-06-28.26748 1.000E-05 15:40:26.510 1.500E-01 0.500 F 0.163 -0.118 -06° 51' 48.10" 1.000E-01 0.500 F 0.173 -0.054 18.7 V 0.70 0.11 o 691 0.26 Yes Yes
1996XB27 O C 2014-06-29.20055 1.000E-05 16:02:31.150 1.500E-01 0.500 F 0.117 -0.266 -01° 17' 07.60" 1.000E-01 0.500 F 0.131 0.129 19.2 V 0.70 -0.31 o 691 0.59 Yes Yes
1996XB27 O C 2014-06-29.24678 1.000E-05 16:02:32.790 1.500E-01 0.500 F 0.117 -0.404 -01° 17' 53.10" 1.000E-01 0.500 F 0.131 -0.048 20.1 V 0.70 0.58 o 691 0.82 Yes Yes
1996XB27 O C 2014-06-29.29700 1.000E-05 16:02:34.680 1.500E-01 0.500 F 0.117 -0.218 -01° 18' 42.20" 1.000E-01 0.500 F 0.131 0.030 19.1 V 0.70 -0.42 o 691 0.44 Yes Yes
2004LJ1 O C 2014-06-30.17754 1.000E-05 15:38:30.270 1.500E-01 0.500 F 0.163 1.139 -06° 31' 50.60" 1.000E-01 0.500 F 0.174 -0.576 18.5 V 0.70 -0.11 o 691 2.56 Yes Yes
2012BR23 O C H 2014-06-30.19085 1.000E-05 16:00:28.770 1.500E-01 0.500 F 0.098 0.336 -06° 35' 59.10" 1.000E-01 0.500 F 0.230 -0.660 o 691 1.51 Yes No
2004LJ1 O C 2014-06-30.22029 1.000E-05 15:38:27.560 1.500E-01 0.500 F 0.163 -0.030 -06° 31' 23.70" 1.000E-01 0.500 F 0.174 0.105 18.6 V 0.70 -0.01 o 691 0.22 Yes Yes
2012BR23 O C H 2014-06-30.23358 1.000E-05 16:00:31.120 1.500E-01 0.500 F 0.098 0.006 -06° 38' 40.00" 1.000E-01 0.500 F 0.230 0.569 o 691 1.16 Yes No
2004LJ1 O C 2014-06-30.26302 1.000E-05 15:38:24.940 1.500E-01 0.500 F 0.163 -0.014 -06° 30' 57.50" 1.000E-01 0.500 F 0.174 0.078 18.6 V 0.70 -0.01 o 691 0.16 Yes Yes
2000SQ43 O C H 2014-06-30.41639 1.000E-05 01:52:36.430 1.500E-01 0.500 F -0.206 -0.625 +13° 04' 49.00" 1.000E-01 0.500 F 0.262 0.195 20.8 V 0.70 -0.12 o 691 1.34 Yes Yes
2000SQ43 O C H 2014-06-30.42912 1.000E-05 01:52:39.060 1.500E-01 0.500 F -0.206 -0.044 +13° 04' 58.30" 1.000E-01 0.500 F 0.262 -0.441 21.2 V 0.70 0.28 o 691 0.90 Yes Yes
2000SQ43 O C H 2014-06-30.44249 1.000E-05 01:52:41.780 1.500E-01 0.500 F -0.206 -0.003 +13° 05' 09.20" 1.000E-01 0.500 F 0.262 0.031 21.1 V 0.70 0.18 o 691 0.06 Yes Yes
Davidaguilar O C 2014-07-01.31763 1.000E-05 21:10:24.790 1.500E-01 0.500 F 0.020 -0.185 -03° 39' 33.00" 1.000E-01 0.500 F 0.207 -0.062 19.3 V 0.70 0.15 o 691 0.39 Yes Yes

[1-200] [201-400] [401-600] [601-800] [801-1000] [1001-1200] [1201-1400] [1401-1600] [1601-1800] [1801-2000] [2001-2200] [2201-2400] [2401-2600] [2601-2800] [2801-3000] [3001-3200] [3201-3400] [3401-3600] [3601-3800] [3801-4000] [4001-4200] [4201-4400] [4401-4600] [4601-4800] [4801-5000] [5001-5200] [5201-5400] [5401-5600] [5601-5800] [5801-6000] [6001-6200] [6201-6400] [6401-6600] [6601-6800] [6801-7000] [7001-7200] [7201-7400] [7401-7600] [7601-7800] [7801-8000] [8001-8200] [8201-8400] [8401-8600] [8601-8800] [8801-9000] [9001-9200] [9201-9400] [9401-9600] [9601-9800] [9801-10000] [10001-10200] [10201-10400] [10401-10600] [10601-10800] [10801-11000] [11001-11200] [11201-11400] [11401-11600] [11601-11800] [11801-12000] [12001-12200] [12201-12400] [12401-12600] [12601-12800] [12801-13000] [13001-13200] [13201-13400] [13401-13600] [13601-13800] [13801-14000] [14001-14200] [14201-14400] [14401-14600] [14601-14800] [14801-15000] [15001-15200] [15201-15400] [15401-15600] [15601-15800] [15801-16000] [16001-16200] [16201-16400] [16401-16600] [16601-16800] [16801-17000] [17001-17200] [17201-17400] [17401-17600] [17601-17800] [17801-18000] [18001-18200] [18201-18400] [18401-18600] [18601-18800] [18801-19000] [19001-19200] [19201-19400] [19401-19600] [19601-19800] [19801-20000] [20001-20200] [20201-20400] [20401-20600] [20601-20800] [20801-21000] [21001-21200] [21201-21400] [21401-21600] [21601-21800] [21801-22000] [22001-22200] [22201-22400] [22401-22600] [22601-22800] [22801-23000] [23001-23200] [23201-23400] [23401-23600] [23601-23800] [23801-24000] [24001-24200] [24201-24400] [24401-24600] [24601-24800] [24801-25000] [25001-25200] [25201-25400] [25401-25600] [25601-25800] [25801-26000] [26001-26200] [26201-26400] [26401-26600] [26601-26800] [26801-27000] [27001-27200] [27201-27400] [27401-27600] [27601-27800] [27801-28000] [28001-28200] [28201-28400] [28401-28600] [28601-28800] [28801-29000] [29001-29200] [29201-29400] [29401-29600] [29601-29800] [29801-30000] [30001-30200] [30201-30400] [30401-30600] [30601-30800] [30801-31000] [31001-31200] [31201-31400] [31401-31600] [31601-31800] [31801-32000] [32001-32200] [32201-32400] [32401-32600] [32601-32800] [32801-33000] [33001-33200] [33201-33400] [33401-33600] [33601-33800] [33801-34000] [34001-34200] [34201-34400] [34401-34600] [34601-34800] [34801-35000] [35001-35200] [35201-35400] [35401-35600] [35601-35800] [35801-36000] [36001-36200] [36201-36400] [36401-36600] [36601-36800] [36801-37000] [37001-37200] [37201-37400] [37401-37600] [37601-37800] [37801-38000] [38001-38200] [38201-38400] [38401-38600] [38601-38800] [38801-39000] [39001-39200] [39201-39400] [39401-39600] [39601-39800] [39801-40000] [40001-40200] [40201-40400] [40401-40600] [40601-40800] [40801-41000] [41001-41200] [41201-41400] [41401-41600] [41601-41800] [41801-42000] [42001-42200] [42201-42400] [42401-42600] [42601-42800] [42801-43000] [43001-43200] [43201-43400] [43401-43600] [43601-43800] [43801-44000] [44001-44200] [44201-44400] [44401-44600] [44601-44800] [44801-45000] [45001-45200] [45201-45400] [45401-45600] [45601-45800] [45801-46000] [46001-46200] [46201-46400] [46401-46600] [46601-46800] [46801-47000] [47001-47200] [47201-47400] [47401-47600] [47601-47800] [47801-48000] [48001-48200] [48201-48400] [48401-48600] [48601-48800] [48801-49000] [49001-49200] [49201-49400] [49401-49600] [49601-49800] [49801-50000] [50001-50200] [50201-50388]